createdAt,value
2022-08-07T00:00:26.001Z,17.76
2022-08-07T00:02:56.085Z,17.68
2022-08-07T00:05:24.137Z,17.66
2022-08-07T00:08:00.263Z,17.61
2022-08-07T00:10:30.927Z,17.63
2022-08-07T00:13:09.949Z,17.63
2022-08-07T00:15:50.981Z,17.58
2022-08-07T00:18:24.377Z,17.53
2022-08-07T00:20:54.397Z,17.39
2022-08-07T00:23:22.141Z,17.37
2022-08-07T00:26:00.294Z,17.40
2022-08-07T00:28:33.164Z,17.41
2022-08-07T00:31:05.811Z,17.34
2022-08-07T00:33:35.618Z,17.40
2022-08-07T00:36:04.218Z,17.31
2022-08-07T00:38:33.239Z,17.28
2022-08-07T00:41:01.815Z,17.28
2022-08-07T00:44:01.847Z,17.34
2022-08-07T00:46:16.985Z,17.17
2022-08-07T00:48:49.993Z,17.29
2022-08-07T00:51:19.501Z,17.28
2022-08-07T00:53:50.404Z,17.15
2022-08-07T00:56:23.402Z,17.19
2022-08-07T00:58:58.416Z,17.17
2022-08-07T01:01:26.159Z,17.10
2022-08-07T01:04:00.166Z,17.08
2022-08-07T01:06:29.180Z,17.07
2022-08-07T01:08:59.350Z,17.04
2022-08-07T01:12:09.940Z,17.06
2022-08-07T01:14:17.220Z,16.89
2022-08-07T01:16:48.975Z,16.95
2022-08-07T01:19:19.706Z,16.92
2022-08-07T01:21:53.265Z,16.95
2022-08-07T01:24:23.419Z,16.83
2022-08-07T01:26:53.782Z,16.84
2022-08-07T01:29:22.594Z,16.79
2022-08-07T01:31:50.724Z,16.74
2022-08-07T01:34:19.118Z,16.73
2022-08-07T01:36:52.840Z,16.69
2022-08-07T01:39:39.464Z,16.64
2022-08-07T01:42:38.291Z,16.75
2022-08-07T01:44:57.064Z,16.72
2022-08-07T01:48:20.923Z,16.66
2022-08-07T01:50:13.933Z,16.61
2022-08-07T01:52:49.713Z,16.55
2022-08-07T01:55:25.213Z,16.62
2022-08-07T01:58:05.636Z,16.54
2022-08-07T02:00:48.991Z,16.47
2022-08-07T02:03:21.938Z,16.43
2022-08-07T02:05:59.696Z,16.41
2022-08-07T02:08:30.723Z,16.37
2022-08-07T02:10:59.538Z,16.36
2022-08-07T02:13:58.168Z,16.28
2022-08-07T02:16:19.891Z,16.17
2022-08-07T02:18:56.982Z,16.09
2022-08-07T02:21:25.983Z,16.04
2022-08-07T02:23:54.965Z,15.94
2022-08-07T02:26:32.588Z,15.95
2022-08-07T02:29:02.960Z,15.82
2022-08-07T02:31:30.924Z,15.88
2022-08-07T02:34:03.668Z,15.92
2022-08-07T02:36:33.822Z,15.87
2022-08-07T02:39:16.044Z,15.88
2022-08-07T02:41:50.794Z,15.85
2022-08-07T02:44:26.872Z,15.84
2022-08-07T02:46:58.116Z,15.87
2022-08-07T02:49:55.786Z,15.84
2022-08-07T02:52:21.495Z,15.76
2022-08-07T02:55:02.000Z,15.62
2022-08-07T02:57:35.006Z,15.56
2022-08-07T03:00:10.352Z,15.51
2022-08-07T03:02:41.883Z,15.46
2022-08-07T03:05:23.244Z,15.47
2022-08-07T03:08:07.501Z,15.39
2022-08-07T03:10:40.593Z,15.38
2022-08-07T03:13:09.066Z,15.29
2022-08-07T03:15:55.879Z,15.33
2022-08-07T03:18:34.101Z,15.26
2022-08-07T03:21:02.780Z,15.23
2022-08-07T03:23:34.034Z,15.23
2022-08-07T03:26:21.259Z,15.23
2022-08-07T03:28:51.803Z,15.15
2022-08-07T03:31:26.266Z,15.15
2022-08-07T03:34:09.286Z,15.05
2022-08-07T03:36:46.781Z,15.16
2022-08-07T03:39:17.062Z,15.15
2022-08-07T03:42:06.548Z,15.12
2022-08-07T03:44:35.470Z,15.13
2022-08-07T03:47:10.852Z,15.15
2022-08-07T03:49:42.192Z,15.11
2022-08-07T03:52:26.183Z,15.11
2022-08-07T03:54:57.355Z,15.12
2022-08-07T03:58:34.296Z,15.11
2022-08-07T04:00:18.157Z,15.03
2022-08-07T04:02:49.458Z,15.02
2022-08-07T04:05:17.076Z,14.95
2022-08-07T04:07:48.404Z,14.94
2022-08-07T04:10:19.657Z,14.93
2022-08-07T04:12:50.435Z,14.94
2022-08-07T04:15:18.530Z,14.97
2022-08-07T04:18:56.509Z,15.00
2022-08-07T04:20:35.333Z,14.93
2022-08-07T04:23:06.208Z,14.92
2022-08-07T04:25:39.463Z,14.95
2022-08-07T04:28:13.322Z,14.91
2022-08-07T04:30:55.606Z,14.92
2022-08-07T04:33:26.856Z,14.92
2022-08-07T04:35:55.468Z,14.95
2022-08-07T04:38:26.060Z,14.82
2022-08-07T04:40:56.689Z,14.81
2022-08-07T04:43:53.488Z,14.80
2022-08-07T04:46:29.242Z,14.83
2022-08-07T04:49:07.473Z,14.88
2022-08-07T04:52:01.441Z,14.86
2022-08-07T04:54:34.773Z,14.89
2022-08-07T04:58:10.890Z,14.96
2022-08-07T05:00:11.650Z,14.86
2022-08-07T05:02:50.223Z,14.88
2022-08-07T05:05:53.417Z,14.93
2022-08-07T05:08:15.291Z,14.95
2022-08-07T05:10:44.643Z,14.93
2022-08-07T05:14:51.994Z,15.00
2022-08-07T05:16:10.838Z,15.10
2022-08-07T05:18:42.299Z,15.13
2022-08-07T05:21:11.262Z,15.22
2022-08-07T05:23:41.158Z,15.19
2022-08-07T05:26:18.850Z,15.27
2022-08-07T05:28:55.599Z,15.40
2022-08-07T05:31:35.310Z,15.36
2022-08-07T05:34:10.975Z,15.49
2022-08-07T05:36:40.168Z,15.54
2022-08-07T05:40:14.130Z,15.64
2022-08-07T05:42:02.262Z,15.63
2022-08-07T05:44:32.146Z,15.74
2022-08-07T05:47:01.768Z,15.81
2022-08-07T05:49:46.379Z,15.88
2022-08-07T05:52:13.830Z,15.95
2022-08-07T05:54:44.358Z,16.09
2022-08-07T05:57:21.967Z,16.07
2022-08-07T05:59:57.493Z,16.22
2022-08-07T06:02:30.598Z,16.34
2022-08-07T06:05:01.792Z,16.37
2022-08-07T06:08:13.920Z,16.41
2022-08-07T06:10:19.448Z,16.52
2022-08-07T06:12:48.113Z,16.68
2022-08-07T06:15:19.670Z,16.71
2022-08-07T06:17:53.374Z,16.77
2022-08-07T06:20:25.514Z,16.91
2022-08-07T06:23:24.833Z,16.98
2022-08-07T06:25:54.516Z,17.02
2022-08-07T06:28:27.977Z,17.12
2022-08-07T06:30:58.253Z,17.19
2022-08-07T06:33:29.651Z,17.34
2022-08-07T06:36:12.454Z,17.42
2022-08-07T06:38:58.414Z,17.49
2022-08-07T06:42:01.116Z,17.59
2022-08-07T06:44:19.545Z,17.71
2022-08-07T06:46:53.682Z,17.73
2022-08-07T06:49:36.708Z,17.80
2022-08-07T06:52:31.325Z,17.85
2022-08-07T06:55:32.525Z,17.92
2022-08-07T06:57:57.250Z,17.99
2022-08-07T07:00:27.633Z,18.09
2022-08-07T07:02:58.194Z,18.21
2022-08-07T07:06:05.608Z,18.25
2022-08-07T07:08:18.618Z,18.31
2022-08-07T07:10:56.710Z,18.43
2022-08-07T07:13:56.637Z,18.42
2022-08-07T07:16:27.632Z,18.59
2022-08-07T07:19:11.268Z,18.58
2022-08-07T07:22:12.318Z,18.64
2022-08-07T07:24:43.133Z,18.69
2022-08-07T07:27:27.929Z,18.77
2022-08-07T07:30:09.136Z,18.80
2022-08-07T07:32:40.452Z,18.85
2022-08-07T07:35:10.020Z,18.91
2022-08-07T07:37:49.501Z,19.07
2022-08-07T07:40:26.047Z,19.12
2022-08-07T07:42:55.844Z,19.14
2022-08-07T07:46:39.984Z,19.25
2022-08-07T07:48:24.306Z,19.29
2022-08-07T07:51:07.918Z,19.31
2022-08-07T07:53:51.416Z,19.36
2022-08-07T07:56:30.585Z,19.41
2022-08-07T07:58:59.975Z,19.54
2022-08-07T08:02:02.086Z,19.61
2022-08-07T08:04:18.484Z,19.85
2022-08-07T08:06:52.189Z,19.92
2022-08-07T08:09:24.624Z,19.95
2022-08-07T08:12:02.401Z,20.04
2022-08-07T08:14:32.098Z,20.05
2022-08-07T08:17:55.677Z,20.03
2022-08-07T08:20:17.225Z,20.06
2022-08-07T08:22:58.946Z,20.05
2022-08-07T08:25:49.308Z,20.09
2022-08-07T08:28:24.133Z,20.17
2022-08-07T08:31:07.931Z,20.28
2022-08-07T08:33:43.882Z,20.33
2022-08-07T08:36:17.717Z,20.47
2022-08-07T08:38:55.258Z,20.53
2022-08-07T08:41:31.461Z,20.59
2022-08-07T08:44:21.273Z,20.73
2022-08-07T08:47:03.899Z,20.84
2022-08-07T08:49:46.520Z,20.93
2022-08-07T08:52:32.227Z,20.96
2022-08-07T08:55:08.074Z,20.95
2022-08-07T08:57:41.635Z,21.09
2022-08-07T09:00:10.660Z,21.19
2022-08-07T09:02:42.769Z,21.26
2022-08-07T09:05:32.021Z,21.29
2022-08-07T09:08:12.341Z,21.41
2022-08-07T09:10:49.872Z,21.54
2022-08-07T09:13:36.941Z,21.65
2022-08-07T09:16:23.338Z,21.64
2022-08-07T09:19:51.677Z,21.81
2022-08-07T09:22:22.625Z,21.82
2022-08-07T09:25:12.085Z,21.86
2022-08-07T09:27:59.660Z,22.01
2022-08-07T09:30:34.246Z,22.05
2022-08-07T09:33:16.516Z,22.22
2022-08-07T09:36:05.468Z,22.19
2022-08-07T09:38:50.190Z,22.20
2022-08-07T09:41:36.297Z,22.43
2022-08-07T09:44:19.948Z,22.56
2022-08-07T09:47:51.832Z,22.53
2022-08-07T09:50:00.452Z,22.47
2022-08-07T09:52:35.421Z,22.54
2022-08-07T09:55:29.900Z,22.50
2022-08-07T09:58:15.510Z,22.54
2022-08-07T10:01:02.174Z,22.49
2022-08-07T10:04:14.361Z,22.89
2022-08-07T10:07:24.631Z,22.96
2022-08-07T10:10:03.278Z,23.04
2022-08-07T10:12:55.212Z,23.07
2022-08-07T10:15:56.019Z,23.03
2022-08-07T10:18:46.337Z,22.95
2022-08-07T10:22:12.157Z,23.06
2022-08-07T10:24:38.144Z,23.06
2022-08-07T10:27:18.650Z,23.23
2022-08-07T10:29:58.516Z,23.45
2022-08-07T10:33:01.217Z,23.56
2022-08-07T10:35:55.365Z,23.45
2022-08-07T10:38:48.154Z,23.52
2022-08-07T10:41:52.310Z,23.82
2022-08-07T10:44:33.742Z,23.86
2022-08-07T10:47:14.480Z,23.95
2022-08-07T10:49:50.673Z,24.07
2022-08-07T10:52:35.909Z,23.99
2022-08-07T10:55:27.059Z,24.03
2022-08-07T10:58:11.722Z,24.10
2022-08-07T11:00:50.622Z,24.22
2022-08-07T11:03:28.050Z,24.23
2022-08-07T11:06:18.347Z,24.38
2022-08-07T11:08:53.612Z,24.47
2022-08-07T11:11:27.026Z,24.58
2022-08-07T11:14:43.941Z,24.54
2022-08-07T11:16:54.640Z,24.65
2022-08-07T11:19:30.639Z,24.69
2022-08-07T11:22:05.694Z,24.72
2022-08-07T11:24:52.765Z,24.62
2022-08-07T11:28:00.773Z,24.70
2022-08-07T11:30:18.351Z,24.79
2022-08-07T11:32:53.673Z,24.44
2022-08-07T11:35:26.835Z,24.53
2022-08-07T11:38:10.674Z,24.76
2022-08-07T11:40:49.640Z,24.79
2022-08-07T11:43:41.318Z,24.81
2022-08-07T11:46:16.969Z,24.85
2022-08-07T11:49:51.466Z,24.92
2022-08-07T11:51:53.613Z,24.89
2022-08-07T11:54:35.797Z,24.96
2022-08-07T11:57:14.217Z,25.02
2022-08-07T12:00:12.325Z,24.88
2022-08-07T12:03:07.889Z,25.07
2022-08-07T12:06:02.572Z,24.91
2022-08-07T12:08:53.934Z,24.99
2022-08-07T12:11:32.557Z,24.98
2022-08-07T12:14:04.538Z,25.10
2022-08-07T12:16:36.516Z,24.99
2022-08-07T12:19:14.691Z,24.98
2022-08-07T12:22:38.780Z,25.27
2022-08-07T12:25:07.844Z,25.24
2022-08-07T12:28:09.963Z,25.38
2022-08-07T12:30:33.487Z,25.35
2022-08-07T12:33:18.957Z,25.52
2022-08-07T12:35:58.174Z,25.58
2022-08-07T12:38:36.927Z,25.54
2022-08-07T12:41:10.995Z,25.57
2022-08-07T12:44:01.936Z,25.62
2022-08-07T12:46:34.500Z,25.48
2022-08-07T12:49:09.926Z,25.57
2022-08-07T12:52:14.298Z,25.75
2022-08-07T12:54:55.025Z,25.72
2022-08-07T12:57:39.064Z,25.80
2022-08-07T13:00:32.997Z,25.67
2022-08-07T13:03:54.775Z,25.76
2022-08-07T13:06:30.832Z,25.81
2022-08-07T13:09:12.575Z,25.82
2022-08-07T13:12:03.138Z,25.80
2022-08-07T13:14:46.808Z,25.83
2022-08-07T13:17:42.412Z,25.99
2022-08-07T13:20:13.856Z,26.01
2022-08-07T13:22:52.774Z,26.06
2022-08-07T13:25:29.786Z,26.10
2022-08-07T13:28:11.264Z,26.14
2022-08-07T13:30:48.761Z,26.14
2022-08-07T13:34:34.551Z,26.13
2022-08-07T13:36:17.683Z,26.09
2022-08-07T13:38:54.406Z,26.16
2022-08-07T13:41:30.174Z,26.17
2022-08-07T13:44:01.737Z,26.06
2022-08-07T13:46:33.783Z,26.15
2022-08-07T13:49:19.769Z,26.20
2022-08-07T13:52:23.152Z,26.30
2022-08-07T13:54:49.374Z,26.19
2022-08-07T13:57:23.963Z,26.19
2022-08-07T13:59:55.593Z,26.26
2022-08-07T14:02:33.320Z,26.36
2022-08-07T14:05:09.718Z,26.25
2022-08-07T14:08:00.477Z,26.19
2022-08-07T14:10:35.083Z,26.21
2022-08-07T14:13:11.759Z,26.12
2022-08-07T14:15:41.547Z,26.12
2022-08-07T14:18:28.582Z,26.10
2022-08-07T14:21:08.036Z,26.11
2022-08-07T14:24:01.675Z,26.14
2022-08-07T14:26:32.353Z,26.16
2022-08-07T14:29:08.694Z,26.27
2022-08-07T14:34:30.073Z,26.31
2022-08-07T14:37:01.741Z,26.37
2022-08-07T14:40:17.798Z,26.32
2022-08-07T14:42:24.512Z,26.41
2022-08-07T14:44:54.616Z,26.46
2022-08-07T14:47:28.399Z,26.48
2022-08-07T14:49:59.296Z,26.42
2022-08-07T14:52:28.900Z,26.48
2022-08-07T14:54:58.529Z,26.61
2022-08-07T15:00:20.464Z,26.46
2022-08-07T15:02:56.716Z,26.48
2022-08-07T15:05:25.427Z,26.51
2022-08-07T15:07:53.447Z,26.48
2022-08-07T15:10:25.980Z,26.44
2022-08-07T15:12:59.301Z,26.34
2022-08-07T15:15:33.976Z,26.42
2022-08-07T15:18:14.354Z,26.51
2022-08-07T15:20:59.695Z,26.48
2022-08-07T15:26:28.817Z,26.43
2022-08-07T15:30:06.885Z,26.60
2022-08-07T15:32:13.282Z,26.53
2022-08-07T15:34:50.770Z,26.45
2022-08-07T15:37:28.877Z,26.40
2022-08-07T15:40:34.323Z,26.43
2022-08-07T15:43:06.888Z,26.44
2022-08-07T15:48:32.091Z,26.51
2022-08-07T15:51:09.897Z,26.48
2022-08-07T15:53:42.164Z,26.64
2022-08-07T15:56:24.407Z,26.64
2022-08-07T15:58:55.042Z,26.65
2022-08-07T16:01:38.723Z,26.69
2022-08-07T16:04:14.217Z,26.76
2022-08-07T16:06:45.341Z,26.84
2022-08-07T16:09:15.370Z,26.78
2022-08-07T16:12:04.552Z,26.75
2022-08-07T16:14:53.764Z,26.74
2022-08-07T16:18:01.599Z,26.74
2022-08-07T16:22:01.801Z,26.72
2022-08-07T16:23:58.744Z,26.72
2022-08-07T16:26:40.335Z,26.77
2022-08-07T16:30:11.067Z,26.68
2022-08-07T16:32:34.446Z,26.65
2022-08-07T16:35:56.637Z,26.63
2022-08-07T16:38:57.498Z,26.53
2022-08-07T16:41:24.536Z,26.43
2022-08-07T16:44:40.528Z,26.47
2022-08-07T16:47:22.909Z,26.46
2022-08-07T16:50:35.492Z,26.41
2022-08-07T16:54:01.693Z,26.34
2022-08-07T16:56:21.064Z,26.34
2022-08-07T16:59:14.356Z,26.37
2022-08-07T17:02:02.844Z,26.40
2022-08-07T17:04:57.906Z,26.43
2022-08-07T17:07:55.412Z,26.47
2022-08-07T17:10:54.617Z,26.60
2022-08-07T17:14:02.138Z,26.70
2022-08-07T17:16:30.405Z,26.73
2022-08-07T17:19:04.885Z,26.77
2022-08-07T17:21:51.346Z,26.85
2022-08-07T17:24:33.297Z,26.88
2022-08-07T17:27:07.471Z,27.03
2022-08-07T17:30:15.339Z,27.15
2022-08-07T17:33:03.503Z,27.58
2022-08-07T17:35:54.582Z,27.55
2022-08-07T17:38:33.334Z,27.33
2022-08-07T17:42:04.632Z,27.02
2022-08-07T17:44:07.389Z,26.86
2022-08-07T17:46:44.017Z,26.62
2022-08-07T17:49:22.980Z,26.50
2022-08-07T17:52:00.360Z,26.39
2022-08-07T17:54:53.360Z,26.45
2022-08-07T17:57:56.129Z,26.41
2022-08-07T18:00:33.003Z,26.33
2022-08-07T18:03:05.421Z,26.31
2022-08-07T18:06:01.435Z,26.17
2022-08-07T18:08:31.699Z,26.08
2022-08-07T18:12:06.877Z,26.03
2022-08-07T18:14:01.841Z,25.98
2022-08-07T18:16:34.074Z,25.93
2022-08-07T18:21:10.313Z,25.88
2022-08-07T18:22:06.419Z,25.86
2022-08-07T18:24:44.184Z,25.76
2022-08-07T18:27:39.216Z,25.61
2022-08-07T18:30:32.951Z,25.60
2022-08-07T18:33:30.385Z,25.61
2022-08-07T18:36:15.906Z,25.50
2022-08-07T18:40:04.921Z,25.42
2022-08-07T18:41:53.932Z,25.35
2022-08-07T18:44:45.930Z,25.27
2022-08-07T18:47:44.495Z,25.18
2022-08-07T18:50:40.873Z,25.13
2022-08-07T18:53:36.649Z,25.00
2022-08-07T18:56:14.348Z,24.99
2022-08-07T18:58:55.164Z,24.91
2022-08-07T19:02:32.302Z,24.90
2022-08-07T19:04:54.568Z,24.80
2022-08-07T19:07:35.078Z,24.71
2022-08-07T19:10:09.990Z,24.66
2022-08-07T19:12:53.680Z,24.60
2022-08-07T19:16:05.805Z,24.55
2022-08-07T19:18:34.061Z,24.40
2022-08-07T19:21:42.781Z,24.46
2022-08-07T19:24:01.274Z,24.38
2022-08-07T19:27:09.145Z,24.26
2022-08-07T19:31:04.381Z,24.09
2022-08-07T19:32:39.489Z,24.03
2022-08-07T19:35:11.420Z,24.02
2022-08-07T19:37:56.972Z,24.01
2022-08-07T19:40:31.039Z,24.11
2022-08-07T19:43:02.562Z,24.07
2022-08-07T19:46:07.559Z,23.97
2022-08-07T19:48:31.732Z,23.84
2022-08-07T19:51:19.972Z,23.72
2022-08-07T19:54:31.284Z,23.66
2022-08-07T19:57:51.574Z,23.60
2022-08-07T19:59:39.757Z,23.45
2022-08-07T20:02:19.471Z,23.36
2022-08-07T20:04:50.517Z,23.26
2022-08-07T20:07:47.135Z,23.22
2022-08-07T20:10:35.701Z,23.16
2022-08-07T20:13:15.734Z,23.02
2022-08-07T20:15:50.944Z,23.00
2022-08-07T20:18:21.691Z,22.95
2022-08-07T20:21:02.275Z,22.89
2022-08-07T20:23:41.024Z,22.92
2022-08-07T20:26:15.335Z,22.84
2022-08-07T20:28:59.687Z,22.77
2022-08-07T20:31:28.262Z,22.78
2022-08-07T20:33:57.678Z,22.75
2022-08-07T20:36:26.526Z,22.65
2022-08-07T20:39:00.823Z,22.63
2022-08-07T20:41:41.864Z,22.58
2022-08-07T20:44:12.788Z,22.52
2022-08-07T20:46:43.668Z,22.54
2022-08-07T20:49:59.007Z,22.56
2022-08-07T20:52:01.642Z,22.46
2022-08-07T20:54:34.399Z,22.45
2022-08-07T20:57:08.314Z,22.45
2022-08-07T21:00:08.448Z,22.42
2022-08-07T21:02:54.456Z,22.33
2022-08-07T21:05:42.738Z,22.23
2022-08-07T21:08:14.691Z,22.22
2022-08-07T21:10:44.447Z,22.25
2022-08-07T21:13:19.364Z,22.22
2022-08-07T21:16:00.673Z,22.15
2022-08-07T21:18:33.465Z,22.08
2022-08-07T21:21:02.378Z,22.01
2022-08-07T21:23:49.430Z,21.96
2022-08-07T21:26:30.835Z,21.90
2022-08-07T21:29:03.575Z,21.88
2022-08-07T21:32:47.090Z,21.70
2022-08-07T21:34:46.126Z,21.69
2022-08-07T21:37:22.555Z,21.83
2022-08-07T21:39:56.550Z,21.88
2022-08-07T21:42:46.573Z,21.80
2022-08-07T21:46:08.016Z,21.82
2022-08-07T21:48:28.990Z,21.71
2022-08-07T21:51:08.075Z,21.60
2022-08-07T21:53:52.651Z,21.60
2022-08-07T21:56:39.554Z,21.62
2022-08-07T21:59:10.849Z,21.51
2022-08-07T22:02:11.450Z,21.42
2022-08-07T22:04:39.231Z,21.44
2022-08-07T22:07:23.237Z,21.32
2022-08-07T22:10:11.922Z,21.38
2022-08-07T22:12:46.938Z,21.34
2022-08-07T22:16:43.981Z,21.30
2022-08-07T22:18:14.809Z,21.26
2022-08-07T22:20:49.903Z,21.16
2022-08-07T22:23:23.093Z,21.16
2022-08-07T22:26:02.825Z,21.22
2022-08-07T22:28:38.761Z,21.11
2022-08-07T22:31:45.710Z,21.05
2022-08-07T22:34:07.333Z,21.10
2022-08-07T22:36:46.737Z,21.13
2022-08-07T22:39:23.565Z,20.94
2022-08-07T22:42:16.149Z,21.03
2022-08-07T22:57:21.045Z,20.82
2022-08-07T22:59:55.358Z,20.70
2022-08-07T23:43:16.894Z,20.18
